Skip Navigation

Christman Field Latest Observations

Switch to english unitsOther observation timesWeekly graphs

Date Time
MST
Temp
°C
RH
%
DewPt
°C
Wind
m/s
Dir
°
Gust
m/s
Dir
°
Press
hPa
Solar
W/m^2
Prec
mm
2018-06-18 19:40 20.9 73.7 16.0 1.9 301 2.2 301 839.20 20.4 0.00
2018-06-18 19:35 21.1 71.4 15.8 2.1 296 2.2 298 839.20 34.1 0.00
2018-06-18 19:30 21.4 68.9 15.5 1.8 299 2.0 298 839.34 45.5 0.00
2018-06-18 19:25 21.8 67.4 15.5 1.4 291 1.7 290 839.52 53.6 0.00
2018-06-18 19:20 22.0 65.3 15.2 1.1 281 1.3 266 839.52 62.8 0.00
2018-06-18 19:15 22.3 63.5 15.0 1.0 296 1.4 309 839.57 69.9 0.00
2018-06-18 19:10 22.7 64.0 15.6 0.3 334 0.8 334 839.58 84.2 0.00
2018-06-18 19:05 22.9 62.3 15.3 0.0 162 0.0 241 839.41 91.7 0.00
2018-06-18 19:00 22.9 59.0 14.5 0.4 241 1.1 231 839.27 106.3 0.00
2018-06-18 18:55 22.8 61.5 15.0 1.1 307 2.0 291 839.23 131.9 0.00
2018-06-18 18:50 22.9 61.9 15.2 1.0 272 1.4 306 839.10 140.4 0.00
2018-06-18 18:45 23.0 60.5 15.0 1.1 298 1.6 313 838.96 160.1 0.00
2018-06-18 18:40 23.0 61.5 15.2 1.3 319 1.8 329 838.87 180.5 0.00
2018-06-18 18:35 22.7 59.5 14.4 0.7 353 1.2 338 838.89 197.9 0.00
2018-06-18 18:30 22.8 58.9 14.3 1.2 342 1.7 344 838.85 164.5 0.00
2018-06-18 18:25 22.7 59.5 14.5 0.7 349 0.9 349 838.90 201.0 0.00
2018-06-18 18:20 22.6 60.9 14.7 0.3 320 0.8 329 839.05 162.4 0.00
2018-06-18 18:15 22.5 59.8 14.3 0.3 328 0.9 39 839.06 183.5 0.00
2018-06-18 18:10 22.3 61.1 14.5 0.5 99 1.1 153 839.04 187.5 0.00
2018-06-18 18:05 22.2 61.6 14.5 1.1 101 1.9 100 839.14 213.9 0.00
2018-06-18 18:00 21.9 64.4 14.9 1.8 150 2.5 137 839.14 212.0 0.00
2018-06-18 17:55 21.8 66.2 15.2 1.7 136 2.3 114 839.09 194.9 0.00
2018-06-18 17:50 21.9 64.4 14.9 2.3 116 3.1 126 839.02 171.1 0.00
2018-06-18 17:45 21.8 64.2 14.8 1.5 127 2.2 113 838.79 197.5 0.00
2018-06-18 17:40 22.1 65.0 15.2 2.2 121 3.0 120 838.74 166.9 0.00
2018-06-18 17:35 22.7 62.6 15.2 2.2 96 3.7 95 838.71 181.2 0.00
2018-06-18 17:30 23.8 58.1 15.1 2.5 114 4.4 83 838.75 404.9 0.00
2018-06-18 17:25 23.8 51.8 13.3 1.7 107 3.4 105 838.72 408.2 0.00
2018-06-18 17:20 23.8 52.0 13.3 2.1 86 3.3 119 838.64 446.2 0.00
2018-06-18 17:15 23.8 51.5 13.2 1.3 97 2.9 105 838.75 421.9 0.00